sensor_id;sensor_type;location;lat;lon;timestamp;temperature;humidity
9482;DHT22;4779;48.062;11.672;2023-03-16T00:01:43;3.30;99.90
9482;DHT22;4779;48.062;11.672;2023-03-16T00:04:10;3.30;99.90
9482;DHT22;4779;48.062;11.672;2023-03-16T00:06:37;3.30;99.90
9482;DHT22;4779;48.062;11.672;2023-03-16T00:09:04;3.30;99.90
9482;DHT22;4779;48.062;11.672;2023-03-16T00:11:31;3.30;99.90
9482;DHT22;4779;48.062;11.672;2023-03-16T00:13:58;3.30;99.90
9482;DHT22;4779;48.062;11.672;2023-03-16T00:16:30;3.20;99.90
9482;DHT22;4779;48.062;11.672;2023-03-16T00:18:57;3.30;99.90
9482;DHT22;4779;48.062;11.672;2023-03-16T00:21:24;3.20;99.90
9482;DHT22;4779;48.062;11.672;2023-03-16T00:23:51;3.20;99.90
9482;DHT22;4779;48.062;11.672;2023-03-16T00:26:18;3.20;99.90
9482;DHT22;4779;48.062;11.672;2023-03-16T00:28:45;3.20;99.90
9482;DHT22;4779;48.062;11.672;2023-03-16T00:31:13;3.10;99.90
9482;DHT22;4779;48.062;11.672;2023-03-16T00:33:41;3.10;99.90
9482;DHT22;4779;48.062;11.672;2023-03-16T00:36:08;3.10;99.90
9482;DHT22;4779;48.062;11.672;2023-03-16T00:38:39;3.10;99.90
9482;DHT22;4779;48.062;11.672;2023-03-16T00:41:10;3.10;99.90
9482;DHT22;4779;48.062;11.672;2023-03-16T00:43:39;3.00;99.90
9482;DHT22;4779;48.062;11.672;2023-03-16T00:46:08;3.00;99.90
9482;DHT22;4779;48.062;11.672;2023-03-16T00:48:37;3.00;99.90
9482;DHT22;4779;48.062;11.672;2023-03-16T00:51:07;3.00;99.90
9482;DHT22;4779;48.062;11.672;2023-03-16T00:53:38;3.00;99.90
9482;DHT22;4779;48.062;11.672;2023-03-16T00:56:06;3.00;99.90
9482;DHT22;4779;48.062;11.672;2023-03-16T00:58:35;2.90;99.90
9482;DHT22;4779;48.062;11.672;2023-03-16T01:01:02;3.00;99.90
9482;DHT22;4779;48.062;11.672;2023-03-16T01:03:30;2.90;99.90
9482;DHT22;4779;48.062;11.672;2023-03-16T01:06:01;2.80;99.90
9482;DHT22;4779;48.062;11.672;2023-03-16T01:08:30;2.80;99.90
9482;DHT22;4779;48.062;11.672;2023-03-16T01:11:01;2.80;99.90
9482;DHT22;4779;48.062;11.672;2023-03-16T01:13:29;2.80;99.90
9482;DHT22;4779;48.062;11.672;2023-03-16T01:15:57;2.80;99.90
9482;DHT22;4779;48.062;11.672;2023-03-16T01:18:24;2.80;99.90
9482;DHT22;4779;48.062;11.672;2023-03-16T01:20:51;2.80;99.90
9482;DHT22;4779;48.062;11.672;2023-03-16T01:23:18;2.70;99.90
9482;DHT22;4779;48.062;11.672;2023-03-16T01:25:47;2.70;99.90
9482;DHT22;4779;48.062;11.672;2023-03-16T01:28:18;2.70;99.90
9482;DHT22;4779;48.062;11.672;2023-03-16T01:30:46;2.70;99.90
9482;DHT22;4779;48.062;11.672;2023-03-16T01:33:13;2.60;99.90
9482;DHT22;4779;48.062;11.672;2023-03-16T01:35:39;2.60;99.90
9482;DHT22;4779;48.062;11.672;2023-03-16T01:38:06;2.60;99.90
9482;DHT22;4779;48.062;11.672;2023-03-16T01:40:33;2.70;99.90
9482;DHT22;4779;48.062;11.672;2023-03-16T01:43:03;2.70;99.90
9482;DHT22;4779;48.062;11.672;2023-03-16T01:48:53;2.70;99.90
9482;DHT22;4779;48.062;11.672;2023-03-16T01:51:24;2.60;99.90
9482;DHT22;4779;48.062;11.672;2023-03-16T01:53:56;2.60;99.90
9482;DHT22;4779;48.062;11.672;2023-03-16T01:56:26;2.70;99.90
9482;DHT22;4779;48.062;11.672;2023-03-16T01:58:57;2.70;99.90
9482;DHT22;4779;48.062;11.672;2023-03-16T02:01:26;2.70;99.90
9482;DHT22;4779;48.062;11.672;2023-03-16T02:03:59;2.70;99.90
9482;DHT22;4779;48.062;11.672;2023-03-16T02:06:28;2.70;99.90
9482;DHT22;4779;48.062;11.672;2023-03-16T02:08:57;2.70;99.90
9482;DHT22;4779;48.062;11.672;2023-03-16T02:11:24;2.70;99.90
9482;DHT22;4779;48.062;11.672;2023-03-16T02:13:51;2.60;99.90
9482;DHT22;4779;48.062;11.672;2023-03-16T02:16:20;2.60;99.90
9482;DHT22;4779;48.062;11.672;2023-03-16T02:18:48;2.60;99.90
9482;DHT22;4779;48.062;11.672;2023-03-16T02:21:18;2.60;99.90
9482;DHT22;4779;48.062;11.672;2023-03-16T02:23:50;2.50;99.90
9482;DHT22;4779;48.062;11.672;2023-03-16T02:26:23;2.50;99.90
9482;DHT22;4779;48.062;11.672;2023-03-16T02:28:59;2.50;99.90
9482;DHT22;4779;48.062;11.672;2023-03-16T03:05:10;2.00;99.90
9482;DHT22;4779;48.062;11.672;2023-03-16T03:07:37;2.00;99.90
9482;DHT22;4779;48.062;11.672;2023-03-16T03:10:05;2.00;99.90
9482;DHT22;4779;48.062;11.672;2023-03-16T03:12:32;1.90;99.90
9482;DHT22;4779;48.062;11.672;2023-03-16T03:15:00;1.90;99.90
9482;DHT22;4779;48.062;11.672;2023-03-16T03:17:26;2.00;99.90
9482;DHT22;4779;48.062;11.672;2023-03-16T03:19:55;1.90;99.90
9482;DHT22;4779;48.062;11.672;2023-03-16T03:22:24;1.80;99.90
9482;DHT22;4779;48.062;11.672;2023-03-16T03:24:51;1.80;99.90
9482;DHT22;4779;48.062;11.672;2023-03-16T03:27:19;1.80;99.90
9482;DHT22;4779;48.062;11.672;2023-03-16T03:29:47;1.80;99.90
9482;DHT22;4779;48.062;11.672;2023-03-16T03:32:14;1.80;99.90
9482;DHT22;4779;48.062;11.672;2023-03-16T03:34:41;1.80;99.90
9482;DHT22;4779;48.062;11.672;2023-03-16T03:37:08;1.70;99.90
9482;DHT22;4779;48.062;11.672;2023-03-16T03:39:36;1.70;99.90
9482;DHT22;4779;48.062;11.672;2023-03-16T03:42:05;1.70;99.90
9482;DHT22;4779;48.062;11.672;2023-03-16T03:44:32;1.70;99.90
9482;DHT22;4779;48.062;11.672;2023-03-16T03:47:00;1.60;99.90
9482;DHT22;4779;48.062;11.672;2023-03-16T03:49:27;1.50;99.90
9482;DHT22;4779;48.062;11.672;2023-03-16T03:51:54;1.50;99.90
9482;DHT22;4779;48.062;11.672;2023-03-16T03:54:23;1.50;99.90
9482;DHT22;4779;48.062;11.672;2023-03-16T03:56:52;1.50;99.90
9482;DHT22;4779;48.062;11.672;2023-03-16T03:59:19;1.50;99.90
9482;DHT22;4779;48.062;11.672;2023-03-16T04:01:47;1.50;99.90
9482;DHT22;4779;48.062;11.672;2023-03-16T04:04:14;1.50;99.90
9482;DHT22;4779;48.062;11.672;2023-03-16T04:06:41;1.50;99.90
9482;DHT22;4779;48.062;11.672;2023-03-16T04:09:08;1.50;99.90
9482;DHT22;4779;48.062;11.672;2023-03-16T04:11:36;1.50;99.90
9482;DHT22;4779;48.062;11.672;2023-03-16T04:14:04;1.50;99.90
9482;DHT22;4779;48.062;11.672;2023-03-16T04:16:32;1.50;99.90
9482;DHT22;4779;48.062;11.672;2023-03-16T04:18:59;1.50;99.90
9482;DHT22;4779;48.062;11.672;2023-03-16T04:21:26;1.50;99.90
9482;DHT22;4779;48.062;11.672;2023-03-16T04:23:53;1.50;99.90
9482;DHT22;4779;48.062;11.672;2023-03-16T04:26:20;1.50;99.90
9482;DHT22;4779;48.062;11.672;2023-03-16T04:28:50;1.50;99.90
9482;DHT22;4779;48.062;11.672;2023-03-16T04:31:18;1.40;99.90
9482;DHT22;4779;48.062;11.672;2023-03-16T04:33:45;1.50;99.90
9482;DHT22;4779;48.062;11.672;2023-03-16T04:36:12;1.50;99.90
9482;DHT22;4779;48.062;11.672;2023-03-16T04:38:39;1.40;99.90
9482;DHT22;4779;48.062;11.672;2023-03-16T04:41:06;1.40;99.90
9482;DHT22;4779;48.062;11.672;2023-03-16T04:43:34;1.30;99.90
9482;DHT22;4779;48.062;11.672;2023-03-16T04:46:01;1.30;99.90
9482;DHT22;4779;48.062;11.672;2023-03-16T04:48:30;1.30;99.90
9482;DHT22;4779;48.062;11.672;2023-03-16T04:50:57;1.30;99.90
9482;DHT22;4779;48.062;11.672;2023-03-16T04:53:26;1.20;99.90
9482;DHT22;4779;48.062;11.672;2023-03-16T04:55:52;1.20;99.90
9482;DHT22;4779;48.062;11.672;2023-03-16T04:58:19;1.20;99.90
9482;DHT22;4779;48.062;11.672;2023-03-16T05:00:47;1.10;99.90
9482;DHT22;4779;48.062;11.672;2023-03-16T05:03:14;1.10;99.90
9482;DHT22;4779;48.062;11.672;2023-03-16T05:05:42;1.10;99.90
9482;DHT22;4779;48.062;11.672;2023-03-16T05:08:10;1.10;99.90
9482;DHT22;4779;48.062;11.672;2023-03-16T05:10:37;1.00;99.90
9482;DHT22;4779;48.062;11.672;2023-03-16T05:13:04;1.10;99.90
9482;DHT22;4779;48.062;11.672;2023-03-16T05:15:31;0.90;99.90
9482;DHT22;4779;48.062;11.672;2023-03-16T05:17:58;0.80;99.90
9482;DHT22;4779;48.062;11.672;2023-03-16T05:20:26;0.70;99.90
9482;DHT22;4779;48.062;11.672;2023-03-16T05:22:54;0.70;99.90
9482;DHT22;4779;48.062;11.672;2023-03-16T05:25:21;0.80;99.90
9482;DHT22;4779;48.062;11.672;2023-03-16T05:27:50;0.80;99.90
9482;DHT22;4779;48.062;11.672;2023-03-16T05:30:18;0.70;99.90
9482;DHT22;4779;48.062;11.672;2023-03-16T05:32:45;0.70;99.90
9482;DHT22;4779;48.062;11.672;2023-03-16T05:35:13;0.80;99.90
9482;DHT22;4779;48.062;11.672;2023-03-16T05:37:40;0.90;99.90
9482;DHT22;4779;48.062;11.672;2023-03-16T05:40:10;0.90;99.90
9482;DHT22;4779;48.062;11.672;2023-03-16T05:42:42;1.00;99.90
9482;DHT22;4779;48.062;11.672;2023-03-16T05:45:09;1.00;99.90
9482;DHT22;4779;48.062;11.672;2023-03-16T05:47:36;1.10;99.90
9482;DHT22;4779;48.062;11.672;2023-03-16T05:50:04;1.10;99.90
9482;DHT22;4779;48.062;11.672;2023-03-16T05:52:31;1.00;99.90
9482;DHT22;4779;48.062;11.672;2023-03-16T05:54:58;0.90;99.90
9482;DHT22;4779;48.062;11.672;2023-03-16T05:57:26;0.90;99.90
9482;DHT22;4779;48.062;11.672;2023-03-16T05:59:55;1.00;99.90
9482;DHT22;4779;48.062;11.672;2023-03-16T06:02:27;1.00;99.90
9482;DHT22;4779;48.062;11.672;2023-03-16T06:04:58;0.90;99.90
9482;DHT22;4779;48.062;11.672;2023-03-16T06:07:26;0.80;99.90
9482;DHT22;4779;48.062;11.672;2023-03-16T06:09:53;0.60;99.90
9482;DHT22;4779;48.062;11.672;2023-03-16T06:12:20;0.70;99.90
9482;DHT22;4779;48.062;11.672;2023-03-16T06:14:48;0.70;99.90
9482;DHT22;4779;48.062;11.672;2023-03-16T06:17:15;0.80;99.90
9482;DHT22;4779;48.062;11.672;2023-03-16T06:19:42;0.90;99.90
9482;DHT22;4779;48.062;11.672;2023-03-16T06:22:09;1.00;99.90
9482;DHT22;4779;48.062;11.672;2023-03-16T06:24:36;1.10;99.90
9482;DHT22;4779;48.062;11.672;2023-03-16T06:27:03;1.20;99.90
9482;DHT22;4779;48.062;11.672;2023-03-16T06:29:30;1.30;99.90
9482;DHT22;4779;48.062;11.672;2023-03-16T06:31:59;1.40;99.90
9482;DHT22;4779;48.062;11.672;2023-03-16T06:34:26;1.50;99.90
9482;DHT22;4779;48.062;11.672;2023-03-16T06:36:53;1.50;99.90
9482;DHT22;4779;48.062;11.672;2023-03-16T06:39:20;1.40;99.90
9482;DHT22;4779;48.062;11.672;2023-03-16T06:41:47;1.40;99.90
9482;DHT22;4779;48.062;11.672;2023-03-16T06:44:14;1.50;99.90
9482;DHT22;4779;48.062;11.672;2023-03-16T06:46:41;1.60;99.90
9482;DHT22;4779;48.062;11.672;2023-03-16T06:49:09;1.80;99.90
9482;DHT22;4779;48.062;11.672;2023-03-16T06:51:36;2.10;99.90
9482;DHT22;4779;48.062;11.672;2023-03-16T06:54:03;2.10;99.90
9482;DHT22;4779;48.062;11.672;2023-03-16T06:56:30;2.00;99.90
9482;DHT22;4779;48.062;11.672;2023-03-16T06:58:56;2.00;99.90
9482;DHT22;4779;48.062;11.672;2023-03-16T07:01:23;1.90;99.90
9482;DHT22;4779;48.062;11.672;2023-03-16T07:03:50;2.00;99.90
9482;DHT22;4779;48.062;11.672;2023-03-16T07:06:19;2.10;99.90
9482;DHT22;4779;48.062;11.672;2023-03-16T07:08:46;2.20;99.90
9482;DHT22;4779;48.062;11.672;2023-03-16T07:11:13;2.10;99.90
9482;DHT22;4779;48.062;11.672;2023-03-16T07:13:40;2.20;99.90
9482;DHT22;4779;48.062;11.672;2023-03-16T07:16:07;2.20;99.90
9482;DHT22;4779;48.062;11.672;2023-03-16T07:18:34;2.10;99.90
9482;DHT22;4779;48.062;11.672;2023-03-16T07:21:02;2.10;99.90
9482;DHT22;4779;48.062;11.672;2023-03-16T07:23:31;2.10;99.90
9482;DHT22;4779;48.062;11.672;2023-03-16T07:25:57;2.20;99.90
9482;DHT22;4779;48.062;11.672;2023-03-16T07:28:25;2.20;99.90
9482;DHT22;4779;48.062;11.672;2023-03-16T07:30:53;2.20;99.90
9482;DHT22;4779;48.062;11.672;2023-03-16T07:33:20;2.30;99.90
9482;DHT22;4779;48.062;11.672;2023-03-16T07:35:47;2.20;99.90
9482;DHT22;4779;48.062;11.672;2023-03-16T07:38:14;2.50;99.90
9482;DHT22;4779;48.062;11.672;2023-03-16T07:40:42;1.20;99.90
9482;DHT22;4779;48.062;11.672;2023-03-16T07:43:09;2.10;99.90
9482;DHT22;4779;48.062;11.672;2023-03-16T07:45:36;2.20;99.90
9482;DHT22;4779;48.062;11.672;2023-03-16T07:48:03;2.30;99.90
9482;DHT22;4779;48.062;11.672;2023-03-16T07:50:30;2.30;99.90
9482;DHT22;4779;48.062;11.672;2023-03-16T07:52:56;2.30;99.90
9482;DHT22;4779;48.062;11.672;2023-03-16T07:55:24;2.30;99.90
9482;DHT22;4779;48.062;11.672;2023-03-16T07:57:52;2.20;99.90
9482;DHT22;4779;48.062;11.672;2023-03-16T08:00:19;2.20;99.90
9482;DHT22;4779;48.062;11.672;2023-03-16T08:02:48;2.40;99.90
9482;DHT22;4779;48.062;11.672;2023-03-16T08:05:16;2.60;99.90
9482;DHT22;4779;48.062;11.672;2023-03-16T08:07:43;2.70;99.90
9482;DHT22;4779;48.062;11.672;2023-03-16T08:10:10;2.80;99.90
9482;DHT22;4779;48.062;11.672;2023-03-16T08:12:37;3.00;99.90
9482;DHT22;4779;48.062;11.672;2023-03-16T08:15:07;3.10;99.90
9482;DHT22;4779;48.062;11.672;2023-03-16T08:17:34;3.30;99.90
9482;DHT22;4779;48.062;11.672;2023-03-16T08:20:02;3.50;99.90
9482;DHT22;4779;48.062;11.672;2023-03-16T08:22:32;3.60;99.90
9482;DHT22;4779;48.062;11.672;2023-03-16T08:25:01;3.70;99.90
9482;DHT22;4779;48.062;11.672;2023-03-16T08:27:28;3.60;99.90
9482;DHT22;4779;48.062;11.672;2023-03-16T08:29:55;3.70;99.90
9482;DHT22;4779;48.062;11.672;2023-03-16T08:32:24;3.60;99.90
9482;DHT22;4779;48.062;11.672;2023-03-16T08:34:50;3.70;99.90
9482;DHT22;4779;48.062;11.672;2023-03-16T08:37:18;3.50;99.90
9482;DHT22;4779;48.062;11.672;2023-03-16T08:39:45;3.60;99.90
9482;DHT22;4779;48.062;11.672;2023-03-16T08:42:12;3.70;99.90
9482;DHT22;4779;48.062;11.672;2023-03-16T08:44:41;3.80;99.90
9482;DHT22;4779;48.062;11.672;2023-03-16T08:47:08;3.60;99.90
9482;DHT22;4779;48.062;11.672;2023-03-16T08:49:37;3.70;99.90
9482;DHT22;4779;48.062;11.672;2023-03-16T08:52:06;3.80;99.90
9482;DHT22;4779;48.062;11.672;2023-03-16T08:54:35;3.80;99.90
9482;DHT22;4779;48.062;11.672;2023-03-16T08:57:03;3.90;99.90
9482;DHT22;4779;48.062;11.672;2023-03-16T08:59:30;3.90;99.90
9482;DHT22;4779;48.062;11.672;2023-03-16T09:01:57;4.00;99.90
9482;DHT22;4779;48.062;11.672;2023-03-16T09:04:25;4.00;99.90
9482;DHT22;4779;48.062;11.672;2023-03-16T09:06:54;4.10;99.90
9482;DHT22;4779;48.062;11.672;2023-03-16T09:09:21;4.30;99.90
9482;DHT22;4779;48.062;11.672;2023-03-16T09:11:48;4.40;99.90
9482;DHT22;4779;48.062;11.672;2023-03-16T09:14:15;4.60;99.90
9482;DHT22;4779;48.062;11.672;2023-03-16T09:16:43;4.80;99.90
9482;DHT22;4779;48.062;11.672;2023-03-16T09:19:10;4.80;99.90
9482;DHT22;4779;48.062;11.672;2023-03-16T09:21:38;4.90;99.90
9482;DHT22;4779;48.062;11.672;2023-03-16T09:24:06;5.10;99.90
9482;DHT22;4779;48.062;11.672;2023-03-16T09:26:34;5.20;99.90
9482;DHT22;4779;48.062;11.672;2023-03-16T09:29:00;5.10;99.90
9482;DHT22;4779;48.062;11.672;2023-03-16T09:31:28;5.20;99.90
9482;DHT22;4779;48.062;11.672;2023-03-16T09:33:55;5.20;99.90
9482;DHT22;4779;48.062;11.672;2023-03-16T09:36:22;5.20;99.90
9482;DHT22;4779;48.062;11.672;2023-03-16T09:38:49;5.20;99.90
9482;DHT22;4779;48.062;11.672;2023-03-16T09:41:30;5.30;99.90
9482;DHT22;4779;48.062;11.672;2023-03-16T09:44:04;5.50;99.90
9482;DHT22;4779;48.062;11.672;2023-03-16T09:46:37;5.90;99.90
9482;DHT22;4779;48.062;11.672;2023-03-16T09:49:08;6.70;99.90
9482;DHT22;4779;48.062;11.672;2023-03-16T09:51:39;7.30;99.90
9482;DHT22;4779;48.062;11.672;2023-03-16T09:54:16;8.00;99.90
9482;DHT22;4779;48.062;11.672;2023-03-16T10:00:14;8.40;99.90
9482;DHT22;4779;48.062;11.672;2023-03-16T10:06:08;9.60;99.90
9482;DHT22;4779;48.062;11.672;2023-03-16T10:08:39;10.20;99.90
9482;DHT22;4779;48.062;11.672;2023-03-16T10:14:02;11.20;99.90
9482;DHT22;4779;48.062;11.672;2023-03-16T10:16:34;11.40;99.90
9482;DHT22;4779;48.062;11.672;2023-03-16T10:19:09;10.70;99.90
9482;DHT22;4779;48.062;11.672;2023-03-16T10:21:39;9.80;99.90
9482;DHT22;4779;48.062;11.672;2023-03-16T10:26:42;8.80;99.90
9482;DHT22;4779;48.062;11.672;2023-03-16T10:29:16;9.00;99.90
9482;DHT22;4779;48.062;11.672;2023-03-16T10:31:43;9.20;99.90
9482;DHT22;4779;48.062;11.672;2023-03-16T10:34:10;9.50;99.90
9482;DHT22;4779;48.062;11.672;2023-03-16T10:36:40;10.10;99.90
9482;DHT22;4779;48.062;11.672;2023-03-16T10:39:09;11.00;99.90
9482;DHT22;4779;48.062;11.672;2023-03-16T10:41:38;11.80;99.90
9482;DHT22;4779;48.062;11.672;2023-03-16T10:44:10;11.80;99.20
9482;DHT22;4779;48.062;11.672;2023-03-16T10:46:40;11.40;99.10
9482;DHT22;4779;48.062;11.672;2023-03-16T10:49:21;10.80;99.90
9482;DHT22;4779;48.062;11.672;2023-03-16T10:51:50;10.60;99.90
9482;DHT22;4779;48.062;11.672;2023-03-16T10:54:26;10.20;99.80
9482;DHT22;4779;48.062;11.672;2023-03-16T10:56:54;10.00;99.90
9482;DHT22;4779;48.062;11.672;2023-03-16T10:59:27;9.90;99.90
9482;DHT22;4779;48.062;11.672;2023-03-16T11:01:58;9.80;99.90
9482;DHT22;4779;48.062;11.672;2023-03-16T11:04:30;10.00;99.90
9482;DHT22;4779;48.062;11.672;2023-03-16T11:06:57;11.00;99.90
9482;DHT22;4779;48.062;11.672;2023-03-16T11:09:30;11.60;99.50
9482;DHT22;4779;48.062;11.672;2023-03-16T11:11:58;11.80;98.60
9482;DHT22;4779;48.062;11.672;2023-03-16T11:14:27;11.80;98.50
9482;DHT22;4779;48.062;11.672;2023-03-16T11:17:02;11.80;98.10
9482;DHT22;4779;48.062;11.672;2023-03-16T11:19:36;11.80;96.30
9482;DHT22;4779;48.062;11.672;2023-03-16T11:22:09;11.20;97.40
9482;DHT22;4779;48.062;11.672;2023-03-16T11:24:44;11.30;97.20
9482;DHT22;4779;48.062;11.672;2023-03-16T11:27:19;11.00;98.00
9482;DHT22;4779;48.062;11.672;2023-03-16T11:29:58;11.50;98.40
9482;DHT22;4779;48.062;11.672;2023-03-16T11:32:33;12.10;97.70
9482;DHT22;4779;48.062;11.672;2023-03-16T11:35:02;12.70;96.60
9482;DHT22;4779;48.062;11.672;2023-03-16T11:37:49;13.10;96.00
9482;DHT22;4779;48.062;11.672;2023-03-16T11:40:28;13.40;94.60
9482;DHT22;4779;48.062;11.672;2023-03-16T11:43:04;13.50;94.10
9482;DHT22;4779;48.062;11.672;2023-03-16T11:45:43;13.80;94.30
9482;DHT22;4779;48.062;11.672;2023-03-16T11:48:23;14.00;94.00
9482;DHT22;4779;48.062;11.672;2023-03-16T11:51:03;14.20;92.30
9482;DHT22;4779;48.062;11.672;2023-03-16T11:53:49;14.30;92.90
9482;DHT22;4779;48.062;11.672;2023-03-16T11:56:25;14.40;91.90
9482;DHT22;4779;48.062;11.672;2023-03-16T11:59:02;14.20;91.30
9482;DHT22;4779;48.062;11.672;2023-03-16T12:01:43;14.00;92.20
9482;DHT22;4779;48.062;11.672;2023-03-16T12:04:24;14.10;92.40
9482;DHT22;4779;48.062;11.672;2023-03-16T12:07:00;14.10;91.00
9482;DHT22;4779;48.062;11.672;2023-03-16T12:10:01;14.20;90.30
9482;DHT22;4779;48.062;11.672;2023-03-16T12:12:45;14.50;90.40
9482;DHT22;4779;48.062;11.672;2023-03-16T12:15:25;14.90;90.00
9482;DHT22;4779;48.062;11.672;2023-03-16T12:17:59;15.20;89.30
9482;DHT22;4779;48.062;11.672;2023-03-16T12:20:42;15.20;87.10
9482;DHT22;4779;48.062;11.672;2023-03-16T12:23:12;15.00;89.20
9482;DHT22;4779;48.062;11.672;2023-03-16T12:25:43;14.90;85.50
9482;DHT22;4779;48.062;11.672;2023-03-16T12:28:17;14.80;88.50
9482;DHT22;4779;48.062;11.672;2023-03-16T12:30:52;14.70;90.10
9482;DHT22;4779;48.062;11.672;2023-03-16T12:33:29;14.70;88.80
9482;DHT22;4779;48.062;11.672;2023-03-16T12:36:10;14.70;87.20
9482;DHT22;4779;48.062;11.672;2023-03-16T12:38:47;14.40;86.60
9482;DHT22;4779;48.062;11.672;2023-03-16T12:41:24;14.20;86.50
9482;DHT22;4779;48.062;11.672;2023-03-16T12:44:05;14.40;87.60
9482;DHT22;4779;48.062;11.672;2023-03-16T12:46:41;14.60;84.30
9482;DHT22;4779;48.062;11.672;2023-03-16T12:49:11;14.90;83.70
9482;DHT22;4779;48.062;11.672;2023-03-16T12:51:41;15.00;81.40
9482;DHT22;4779;48.062;11.672;2023-03-16T12:54:18;14.90;82.40
9482;DHT22;4779;48.062;11.672;2023-03-16T12:56:47;15.10;84.80
9482;DHT22;4779;48.062;11.672;2023-03-16T12:59:16;15.20;83.70
9482;DHT22;4779;48.062;11.672;2023-03-16T13:01:47;15.30;80.60
9482;DHT22;4779;48.062;11.672;2023-03-16T13:04:17;15.20;76.00
9482;DHT22;4779;48.062;11.672;2023-03-16T13:06:48;15.30;80.70
9482;DHT22;4779;48.062;11.672;2023-03-16T13:09:18;15.00;78.50
9482;DHT22;4779;48.062;11.672;2023-03-16T13:11:47;15.00;78.90
9482;DHT22;4779;48.062;11.672;2023-03-16T13:14:29;15.20;77.50
9482;DHT22;4779;48.062;11.672;2023-03-16T13:17:10;15.00;76.20
9482;DHT22;4779;48.062;11.672;2023-03-16T13:20:00;15.30;78.20
9482;DHT22;4779;48.062;11.672;2023-03-16T13:22:41;15.50;77.30
9482;DHT22;4779;48.062;11.672;2023-03-16T13:25:14;15.40;77.10
9482;DHT22;4779;48.062;11.672;2023-03-16T13:27:43;15.60;77.90
9482;DHT22;4779;48.062;11.672;2023-03-16T13:30:20;15.50;71.60
9482;DHT22;4779;48.062;11.672;2023-03-16T13:32:52;15.10;79.60
9482;DHT22;4779;48.062;11.672;2023-03-16T13:35:20;15.30;75.00
9482;DHT22;4779;48.062;11.672;2023-03-16T13:37:52;15.30;72.90
9482;DHT22;4779;48.062;11.672;2023-03-16T13:40:21;15.50;75.70
9482;DHT22;4779;48.062;11.672;2023-03-16T13:42:50;15.60;74.20
9482;DHT22;4779;48.062;11.672;2023-03-16T13:45:21;15.60;74.00
9482;DHT22;4779;48.062;11.672;2023-03-16T13:47:49;15.60;74.40
9482;DHT22;4779;48.062;11.672;2023-03-16T13:50:17;15.90;75.80
9482;DHT22;4779;48.062;11.672;2023-03-16T13:52:56;16.00;74.80
9482;DHT22;4779;48.062;11.672;2023-03-16T13:55:28;15.90;73.10
9482;DHT22;4779;48.062;11.672;2023-03-16T13:57:56;15.90;71.60
9482;DHT22;4779;48.062;11.672;2023-03-16T14:00:25;15.90;72.60
9482;DHT22;4779;48.062;11.672;2023-03-16T14:02:53;15.80;74.70
9482;DHT22;4779;48.062;11.672;2023-03-16T14:05:23;15.80;72.30
9482;DHT22;4779;48.062;11.672;2023-03-16T14:07:53;15.70;73.90
9482;DHT22;4779;48.062;11.672;2023-03-16T14:10:20;15.70;75.00
9482;DHT22;4779;48.062;11.672;2023-03-16T14:12:52;15.60;73.50
9482;DHT22;4779;48.062;11.672;2023-03-16T14:15:20;15.50;73.90
9482;DHT22;4779;48.062;11.672;2023-03-16T14:17:48;15.60;75.30
9482;DHT22;4779;48.062;11.672;2023-03-16T14:20:18;15.60;74.10
9482;DHT22;4779;48.062;11.672;2023-03-16T14:22:45;15.70;70.80
9482;DHT22;4779;48.062;11.672;2023-03-16T14:25:18;15.70;74.30
9482;DHT22;4779;48.062;11.672;2023-03-16T14:27:47;15.80;73.00
9482;DHT22;4779;48.062;11.672;2023-03-16T14:30:16;15.80;73.50
9482;DHT22;4779;48.062;11.672;2023-03-16T14:32:54;15.70;74.40
9482;DHT22;4779;48.062;11.672;2023-03-16T14:35:26;15.40;71.80
9482;DHT22;4779;48.062;11.672;2023-03-16T14:37:53;15.10;72.10
9482;DHT22;4779;48.062;11.672;2023-03-16T14:40:27;15.00;70.50
9482;DHT22;4779;48.062;11.672;2023-03-16T14:42:58;15.10;72.70
9482;DHT22;4779;48.062;11.672;2023-03-16T14:45:31;15.20;71.60
9482;DHT22;4779;48.062;11.672;2023-03-16T14:48:03;15.20;70.90
9482;DHT22;4779;48.062;11.672;2023-03-16T14:50:30;15.20;70.50
9482;DHT22;4779;48.062;11.672;2023-03-16T14:52:59;15.10;72.80
9482;DHT22;4779;48.062;11.672;2023-03-16T14:55:28;14.90;69.70
9482;DHT22;4779;48.062;11.672;2023-03-16T14:57:55;14.70;72.70
9482;DHT22;4779;48.062;11.672;2023-03-16T15:00:22;14.50;72.60
9482;DHT22;4779;48.062;11.672;2023-03-16T15:02:57;14.50;73.20
9482;DHT22;4779;48.062;11.672;2023-03-16T15:05:30;14.50;73.30
9482;DHT22;4779;48.062;11.672;2023-03-16T15:07:57;14.40;72.70
9482;DHT22;4779;48.062;11.672;2023-03-16T15:10:28;14.40;71.40
9482;DHT22;4779;48.062;11.672;2023-03-16T15:12:57;14.40;71.30
9482;DHT22;4779;48.062;11.672;2023-03-16T15:15:37;14.30;72.50
9482;DHT22;4779;48.062;11.672;2023-03-16T15:18:05;14.20;72.70
9482;DHT22;4779;48.062;11.672;2023-03-16T15:20:34;14.10;74.30
9482;DHT22;4779;48.062;11.672;2023-03-16T15:23:04;14.00;75.30
9482;DHT22;4779;48.062;11.672;2023-03-16T15:25:34;13.90;73.50
9482;DHT22;4779;48.062;11.672;2023-03-16T15:28:03;13.70;71.40
9482;DHT22;4779;48.062;11.672;2023-03-16T15:30:35;13.70;73.70
9482;DHT22;4779;48.062;11.672;2023-03-16T15:33:02;13.50;74.10
9482;DHT22;4779;48.062;11.672;2023-03-16T15:35:29;13.50;75.30
9482;DHT22;4779;48.062;11.672;2023-03-16T15:37:56;13.30;76.90
9482;DHT22;4779;48.062;11.672;2023-03-16T15:40:24;13.10;74.40
9482;DHT22;4779;48.062;11.672;2023-03-16T15:42:53;12.90;75.10
9482;DHT22;4779;48.062;11.672;2023-03-16T15:45:21;12.90;75.00
9482;DHT22;4779;48.062;11.672;2023-03-16T15:47:50;12.80;75.60
9482;DHT22;4779;48.062;11.672;2023-03-16T15:50:19;12.80;74.80
9482;DHT22;4779;48.062;11.672;2023-03-16T15:52:48;12.70;75.20
9482;DHT22;4779;48.062;11.672;2023-03-16T15:55:19;12.50;75.70
9482;DHT22;4779;48.062;11.672;2023-03-16T15:57:48;12.30;77.80
9482;DHT22;4779;48.062;11.672;2023-03-16T16:00:27;12.10;78.80
9482;DHT22;4779;48.062;11.672;2023-03-16T16:02:56;11.90;78.10
9482;DHT22;4779;48.062;11.672;2023-03-16T16:05:24;11.60;78.30
9482;DHT22;4779;48.062;11.672;2023-03-16T16:07:52;11.40;79.80
9482;DHT22;4779;48.062;11.672;2023-03-16T16:10:20;11.10;80.20
9482;DHT22;4779;48.062;11.672;2023-03-16T16:12:48;10.90;81.50
9482;DHT22;4779;48.062;11.672;2023-03-16T16:15:18;10.70;82.40
9482;DHT22;4779;48.062;11.672;2023-03-16T16:17:49;10.60;83.60
9482;DHT22;4779;48.062;11.672;2023-03-16T16:20:18;10.50;84.30
9482;DHT22;4779;48.062;11.672;2023-03-16T16:22:46;10.40;84.70
9482;DHT22;4779;48.062;11.672;2023-03-16T16:25:13;10.30;84.10
9482;DHT22;4779;48.062;11.672;2023-03-16T16:27:41;10.10;85.00
9482;DHT22;4779;48.062;11.672;2023-03-16T16:30:24;9.90;85.90
9482;DHT22;4779;48.062;11.672;2023-03-16T16:32:53;9.80;86.70
9482;DHT22;4779;48.062;11.672;2023-03-16T16:35:22;9.80;87.20
9482;DHT22;4779;48.062;11.672;2023-03-16T16:37:50;9.70;88.40
9482;DHT22;4779;48.062;11.672;2023-03-16T16:40:18;9.60;89.30
9482;DHT22;4779;48.062;11.672;2023-03-16T16:42:47;9.50;88.80
9482;DHT22;4779;48.062;11.672;2023-03-16T16:45:16;9.40;90.00
9482;DHT22;4779;48.062;11.672;2023-03-16T16:47:45;9.40;90.50
9482;DHT22;4779;48.062;11.672;2023-03-16T16:50:17;9.30;90.90
9482;DHT22;4779;48.062;11.672;2023-03-16T16:52:45;9.30;91.30
9482;DHT22;4779;48.062;11.672;2023-03-16T16:55:13;9.20;91.60
9482;DHT22;4779;48.062;11.672;2023-03-16T16:57:40;9.10;91.20
9482;DHT22;4779;48.062;11.672;2023-03-16T17:00:16;9.00;91.30